sensor_id;sensor_type;location;lat;lon;timestamp;P1;durP1;ratioP1;P2;durP2;ratioP2
8312;SDS011;4194;43.408;24.626;2023-04-01T00:02:07;4.70;;;4.03;;
8312;SDS011;4194;43.408;24.626;2023-04-01T00:04:32;5.67;;;4.03;;
8312;SDS011;4194;43.408;24.626;2023-04-01T00:06:58;6.13;;;4.03;;
8312;SDS011;4194;43.408;24.626;2023-04-01T00:09:25;6.83;;;4.20;;
8312;SDS011;4194;43.408;24.626;2023-04-01T00:11:51;6.53;;;4.18;;
8312;SDS011;4194;43.408;24.626;2023-04-01T00:14:17;4.60;;;4.00;;
8312;SDS011;4194;43.408;24.626;2023-04-01T00:16:43;5.80;;;4.17;;
8312;SDS011;4194;43.408;24.626;2023-04-01T00:19:08;9.03;;;4.50;;
8312;SDS011;4194;43.408;24.626;2023-04-01T00:21:34;7.83;;;4.47;;
8312;SDS011;4194;43.408;24.626;2023-04-01T00:24:01;8.70;;;4.90;;
8312;SDS011;4194;43.408;24.626;2023-04-01T00:26:27;7.70;;;4.17;;
8312;SDS011;4194;43.408;24.626;2023-04-01T00:28:53;5.23;;;3.90;;
8312;SDS011;4194;43.408;24.626;2023-04-01T00:31:19;6.17;;;4.43;;
8312;SDS011;4194;43.408;24.626;2023-04-01T00:33:45;9.33;;;4.30;;
8312;SDS011;4194;43.408;24.626;2023-04-01T00:36:18;5.87;;;4.30;;
8312;SDS011;4194;43.408;24.626;2023-04-01T00:38:46;8.33;;;4.90;;
8312;SDS011;4194;43.408;24.626;2023-04-01T00:41:17;6.43;;;4.57;;
8312;SDS011;4194;43.408;24.626;2023-04-01T00:43:47;5.07;;;4.47;;
8312;SDS011;4194;43.408;24.626;2023-04-01T00:46:15;6.00;;;4.33;;
8312;SDS011;4194;43.408;24.626;2023-04-01T00:48:45;7.57;;;4.23;;
8312;SDS011;4194;43.408;24.626;2023-04-01T00:51:15;6.13;;;4.10;;
8312;SDS011;4194;43.408;24.626;2023-04-01T00:53:46;5.90;;;4.03;;
8312;SDS011;4194;43.408;24.626;2023-04-01T00:56:24;5.50;;;3.90;;
8312;SDS011;4194;43.408;24.626;2023-04-01T00:59:14;7.30;;;4.40;;
8312;SDS011;4194;43.408;24.626;2023-04-01T01:01:46;5.63;;;3.90;;
8312;SDS011;4194;43.408;24.626;2023-04-01T01:04:27;10.23;;;4.87;;
8312;SDS011;4194;43.408;24.626;2023-04-01T01:10:15;6.00;;;4.43;;
8312;SDS011;4194;43.408;24.626;2023-04-01T01:15:36;5.67;;;4.60;;
8312;SDS011;4194;43.408;24.626;2023-04-01T01:37:36;19.43;;;8.73;;
8312;SDS011;4194;43.408;24.626;2023-04-01T01:40:06;13.27;;;9.17;;
8312;SDS011;4194;43.408;24.626;2023-04-01T01:42:35;8.40;;;6.20;;
8312;SDS011;4194;43.408;24.626;2023-04-01T01:45:05;9.70;;;6.50;;
8312;SDS011;4194;43.408;24.626;2023-04-01T01:47:33;7.63;;;5.83;;
8312;SDS011;4194;43.408;24.626;2023-04-01T01:50:00;8.70;;;6.17;;
8312;SDS011;4194;43.408;24.626;2023-04-01T01:52:28;13.47;;;7.13;;
8312;SDS011;4194;43.408;24.626;2023-04-01T01:54:55;9.67;;;6.30;;
8312;SDS011;4194;43.408;24.626;2023-04-01T01:57:42;11.03;;;7.03;;
8312;SDS011;4194;43.408;24.626;2023-04-01T02:00:09;11.70;;;6.73;;
8312;SDS011;4194;43.408;24.626;2023-04-01T02:02:40;13.17;;;6.87;;
8312;SDS011;4194;43.408;24.626;2023-04-01T02:05:08;10.97;;;7.40;;
8312;SDS011;4194;43.408;24.626;2023-04-01T02:07:36;15.33;;;8.00;;
8312;SDS011;4194;43.408;24.626;2023-04-01T02:10:04;8.33;;;6.73;;
8312;SDS011;4194;43.408;24.626;2023-04-01T02:12:34;12.00;;;7.37;;
8312;SDS011;4194;43.408;24.626;2023-04-01T02:15:05;12.83;;;7.50;;
8312;SDS011;4194;43.408;24.626;2023-04-01T02:17:34;10.67;;;6.90;;
8312;SDS011;4194;43.408;24.626;2023-04-01T02:20:07;9.50;;;6.33;;
8312;SDS011;4194;43.408;24.626;2023-04-01T02:22:39;10.23;;;6.90;;
8312;SDS011;4194;43.408;24.626;2023-04-01T02:25:08;9.20;;;6.97;;
8312;SDS011;4194;43.408;24.626;2023-04-01T02:27:38;11.73;;;6.67;;
8312;SDS011;4194;43.408;24.626;2023-04-01T02:30:05;8.73;;;5.93;;
8312;SDS011;4194;43.408;24.626;2023-04-01T02:32:32;11.33;;;6.50;;
8312;SDS011;4194;43.408;24.626;2023-04-01T02:35:00;11.23;;;6.47;;
8312;SDS011;4194;43.408;24.626;2023-04-01T02:37:30;11.00;;;6.67;;
8312;SDS011;4194;43.408;24.626;2023-04-01T02:40:06;9.33;;;6.63;;
8312;SDS011;4194;43.408;24.626;2023-04-01T02:42:33;9.93;;;6.67;;
8312;SDS011;4194;43.408;24.626;2023-04-01T02:44:59;8.77;;;6.57;;
8312;SDS011;4194;43.408;24.626;2023-04-01T02:47:25;8.43;;;6.13;;
8312;SDS011;4194;43.408;24.626;2023-04-01T02:49:50;10.40;;;6.80;;
8312;SDS011;4194;43.408;24.626;2023-04-01T02:52:22;10.37;;;6.83;;
8312;SDS011;4194;43.408;24.626;2023-04-01T02:54:51;12.10;;;6.57;;
8312;SDS011;4194;43.408;24.626;2023-04-01T02:57:17;13.33;;;7.40;;
8312;SDS011;4194;43.408;24.626;2023-04-01T02:59:43;10.47;;;7.40;;
8312;SDS011;4194;43.408;24.626;2023-04-01T03:02:08;9.87;;;6.97;;
8312;SDS011;4194;43.408;24.626;2023-04-01T03:04:34;17.23;;;7.67;;
8312;SDS011;4194;43.408;24.626;2023-04-01T03:07:00;13.70;;;6.50;;
8312;SDS011;4194;43.408;24.626;2023-04-01T03:09:26;8.67;;;6.33;;
8312;SDS011;4194;43.408;24.626;2023-04-01T03:11:53;8.00;;;5.20;;
8312;SDS011;4194;43.408;24.626;2023-04-01T03:14:18;7.57;;;5.13;;
8312;SDS011;4194;43.408;24.626;2023-04-01T03:16:44;6.57;;;4.10;;
8312;SDS011;4194;43.408;24.626;2023-04-01T03:19:10;5.50;;;4.37;;
8312;SDS011;4194;43.408;24.626;2023-04-01T03:21:35;5.47;;;4.10;;
8312;SDS011;4194;43.408;24.626;2023-04-01T03:24:01;4.83;;;3.30;;
8312;SDS011;4194;43.408;24.626;2023-04-01T03:26:27;6.17;;;3.57;;
8312;SDS011;4194;43.408;24.626;2023-04-01T03:28:53;10.07;;;4.60;;
8312;SDS011;4194;43.408;24.626;2023-04-01T03:31:20;8.77;;;4.23;;
8312;SDS011;4194;43.408;24.626;2023-04-01T03:33:46;9.67;;;4.53;;
8312;SDS011;4194;43.408;24.626;2023-04-01T03:36:11;6.93;;;4.30;;
8312;SDS011;4194;43.408;24.626;2023-04-01T03:38:38;8.10;;;3.90;;
8312;SDS011;4194;43.408;24.626;2023-04-01T03:41:11;6.20;;;4.17;;
8312;SDS011;4194;43.408;24.626;2023-04-01T03:43:38;10.53;;;4.43;;
8312;SDS011;4194;43.408;24.626;2023-04-01T03:46:04;10.20;;;4.50;;
8312;SDS011;4194;43.408;24.626;2023-04-01T03:48:30;8.67;;;4.40;;
8312;SDS011;4194;43.408;24.626;2023-04-01T03:50:55;8.73;;;4.40;;
8312;SDS011;4194;43.408;24.626;2023-04-01T03:53:21;11.60;;;5.50;;
8312;SDS011;4194;43.408;24.626;2023-04-01T03:55:47;11.07;;;5.33;;
8312;SDS011;4194;43.408;24.626;2023-04-01T03:58:13;11.90;;;4.63;;
8312;SDS011;4194;43.408;24.626;2023-04-01T04:00:38;10.70;;;4.67;;
8312;SDS011;4194;43.408;24.626;2023-04-01T04:03:05;7.77;;;5.73;;
8312;SDS011;4194;43.408;24.626;2023-04-01T04:05:31;9.00;;;6.47;;
8312;SDS011;4194;43.408;24.626;2023-04-01T04:07:57;7.43;;;6.60;;
8312;SDS011;4194;43.408;24.626;2023-04-01T04:10:23;10.20;;;6.43;;
8312;SDS011;4194;43.408;24.626;2023-04-01T04:12:50;8.73;;;5.90;;
8312;SDS011;4194;43.408;24.626;2023-04-01T04:15:16;10.67;;;6.00;;
8312;SDS011;4194;43.408;24.626;2023-04-01T04:17:43;7.73;;;5.77;;
8312;SDS011;4194;43.408;24.626;2023-04-01T04:20:10;10.90;;;4.70;;
8312;SDS011;4194;43.408;24.626;2023-04-01T04:22:36;6.83;;;4.07;;
8312;SDS011;4194;43.408;24.626;2023-04-01T04:25:01;7.63;;;3.70;;
8312;SDS011;4194;43.408;24.626;2023-04-01T04:27:27;5.70;;;3.57;;
8312;SDS011;4194;43.408;24.626;2023-04-01T04:29:53;7.73;;;3.50;;
8312;SDS011;4194;43.408;24.626;2023-04-01T04:32:19;6.80;;;3.67;;
8312;SDS011;4194;43.408;24.626;2023-04-01T04:34:44;5.60;;;3.53;;
8312;SDS011;4194;43.408;24.626;2023-04-01T04:37:10;9.70;;;4.17;;
8312;SDS011;4194;43.408;24.626;2023-04-01T04:39:36;6.67;;;3.63;;
8312;SDS011;4194;43.408;24.626;2023-04-01T04:42:01;7.97;;;3.90;;
8312;SDS011;4194;43.408;24.626;2023-04-01T04:44:27;8.60;;;4.27;;
8312;SDS011;4194;43.408;24.626;2023-04-01T04:46:53;9.67;;;4.03;;
8312;SDS011;4194;43.408;24.626;2023-04-01T04:49:18;7.60;;;4.03;;
8312;SDS011;4194;43.408;24.626;2023-04-01T04:51:44;8.53;;;3.90;;
8312;SDS011;4194;43.408;24.626;2023-04-01T04:54:10;5.03;;;3.33;;
8312;SDS011;4194;43.408;24.626;2023-04-01T04:56:36;8.10;;;3.73;;
8312;SDS011;4194;43.408;24.626;2023-04-01T04:59:02;10.20;;;3.20;;
8312;SDS011;4194;43.408;24.626;2023-04-01T05:01:27;7.37;;;3.67;;
8312;SDS011;4194;43.408;24.626;2023-04-01T05:03:53;8.37;;;3.63;;
8312;SDS011;4194;43.408;24.626;2023-04-01T05:06:20;8.43;;;4.63;;
8312;SDS011;4194;43.408;24.626;2023-04-01T05:08:46;12.60;;;4.80;;
8312;SDS011;4194;43.408;24.626;2023-04-01T05:11:13;17.17;;;6.97;;
8312;SDS011;4194;43.408;24.626;2023-04-01T05:13:41;17.50;;;7.60;;
8312;SDS011;4194;43.408;24.626;2023-04-01T05:16:11;13.87;;;7.33;;
8312;SDS011;4194;43.408;24.626;2023-04-01T05:18:38;21.33;;;8.17;;
8312;SDS011;4194;43.408;24.626;2023-04-01T05:21:04;16.50;;;8.37;;
8312;SDS011;4194;43.408;24.626;2023-04-01T05:23:31;13.63;;;8.50;;
8312;SDS011;4194;43.408;24.626;2023-04-01T05:25:58;24.13;;;11.73;;
8312;SDS011;4194;43.408;24.626;2023-04-01T05:28:27;22.00;;;10.83;;
8312;SDS011;4194;43.408;24.626;2023-04-01T05:30:53;26.87;;;10.70;;
8312;SDS011;4194;43.408;24.626;2023-04-01T05:33:18;23.47;;;9.63;;
8312;SDS011;4194;43.408;24.626;2023-04-01T05:35:44;16.60;;;8.53;;
8312;SDS011;4194;43.408;24.626;2023-04-01T05:38:10;14.80;;;8.67;;
8312;SDS011;4194;43.408;24.626;2023-04-01T05:40:35;15.33;;;8.50;;
8312;SDS011;4194;43.408;24.626;2023-04-01T05:43:01;15.07;;;8.00;;
8312;SDS011;4194;43.408;24.626;2023-04-01T05:45:27;16.73;;;6.80;;
8312;SDS011;4194;43.408;24.626;2023-04-01T05:47:54;16.67;;;6.97;;
8312;SDS011;4194;43.408;24.626;2023-04-01T05:50:20;19.77;;;8.13;;
8312;SDS011;4194;43.408;24.626;2023-04-01T05:52:45;68.37;;;19.03;;
8312;SDS011;4194;43.408;24.626;2023-04-01T05:55:11;59.43;;;15.83;;
8312;SDS011;4194;43.408;24.626;2023-04-01T05:57:37;59.43;;;16.53;;
8312;SDS011;4194;43.408;24.626;2023-04-01T06:00:03;59.43;;;17.63;;
8312;SDS011;4194;43.408;24.626;2023-04-01T06:02:29;64.50;;;17.97;;
8312;SDS011;4194;43.408;24.626;2023-04-01T06:05:14;62.43;;;16.33;;
8312;SDS011;4194;43.408;24.626;2023-04-01T06:07:45;64.13;;;17.30;;
8312;SDS011;4194;43.408;24.626;2023-04-01T06:10:12;48.30;;;13.90;;
8312;SDS011;4194;43.408;24.626;2023-04-01T06:18:39;45.90;;;13.60;;
8312;SDS011;4194;43.408;24.626;2023-04-01T06:24:51;32.90;;;10.83;;
8312;SDS011;4194;43.408;24.626;2023-04-01T06:30:34;28.73;;;11.13;;
8312;SDS011;4194;43.408;24.626;2023-04-01T06:43:41;21.10;;;10.80;;
8312;SDS011;4194;43.408;24.626;2023-04-01T06:46:38;13.90;;;8.43;;
8312;SDS011;4194;43.408;24.626;2023-04-01T06:52:19;18.33;;;8.80;;
8312;SDS011;4194;43.408;24.626;2023-04-01T06:54:58;21.63;;;8.17;;
8312;SDS011;4194;43.408;24.626;2023-04-01T06:57:39;13.30;;;6.17;;
8312;SDS011;4194;43.408;24.626;2023-04-01T07:00:14;14.30;;;5.83;;
8312;SDS011;4194;43.408;24.626;2023-04-01T07:02:58;9.80;;;4.93;;
8312;SDS011;4194;43.408;24.626;2023-04-01T07:05:44;6.37;;;4.30;;
8312;SDS011;4194;43.408;24.626;2023-04-01T07:08:21;15.17;;;9.03;;
8312;SDS011;4194;43.408;24.626;2023-04-01T07:10:53;17.87;;;14.77;;
8312;SDS011;4194;43.408;24.626;2023-04-01T07:13:34;11.97;;;7.77;;
8312;SDS011;4194;43.408;24.626;2023-04-01T07:18:46;9.13;;;3.10;;
8312;SDS011;4194;43.408;24.626;2023-04-01T07:21:26;9.40;;;3.20;;
8312;SDS011;4194;43.408;24.626;2023-04-01T07:24:21;6.20;;;3.07;;
8312;SDS011;4194;43.408;24.626;2023-04-01T07:26:55;10.20;;;3.80;;
8312;SDS011;4194;43.408;24.626;2023-04-01T07:29:22;8.53;;;3.20;;
8312;SDS011;4194;43.408;24.626;2023-04-01T07:37:15;8.17;;;3.27;;
8312;SDS011;4194;43.408;24.626;2023-04-01T07:57:11;7.27;;;4.10;;
8312;SDS011;4194;43.408;24.626;2023-04-01T08:07:40;5.60;;;2.93;;
8312;SDS011;4194;43.408;24.626;2023-04-01T08:10:21;7.07;;;3.03;;
8312;SDS011;4194;43.408;24.626;2023-04-01T08:13:43;6.57;;;2.57;;
8312;SDS011;4194;43.408;24.626;2023-04-01T08:21:52;4.47;;;2.63;;
8312;SDS011;4194;43.408;24.626;2023-04-01T08:27:09;5.20;;;2.30;;
8312;SDS011;4194;43.408;24.626;2023-04-01T08:30:04;4.13;;;2.17;;
8312;SDS011;4194;43.408;24.626;2023-04-01T08:32:43;4.90;;;2.33;;
8312;SDS011;4194;43.408;24.626;2023-04-01T08:37:53;4.77;;;2.73;;
8312;SDS011;4194;43.408;24.626;2023-04-01T08:40:28;7.47;;;3.10;;
8312;SDS011;4194;43.408;24.626;2023-04-01T08:57:48;5.43;;;2.47;;
8312;SDS011;4194;43.408;24.626;2023-04-01T09:25:48;7.93;;;2.57;;
8312;SDS011;4194;43.408;24.626;2023-04-01T09:50:30;6.37;;;3.80;;
8312;SDS011;4194;43.408;24.626;2023-04-01T10:04:12;7.43;;;2.77;;
8312;SDS011;4194;43.408;24.626;2023-04-01T10:07:03;5.53;;;2.57;;
8312;SDS011;4194;43.408;24.626;2023-04-01T10:30:41;5.33;;;2.70;;
8312;SDS011;4194;43.408;24.626;2023-04-01T10:39:19;4.17;;;2.53;;
8312;SDS011;4194;43.408;24.626;2023-04-01T10:50:33;4.97;;;2.47;;
8312;SDS011;4194;43.408;24.626;2023-04-01T10:59:11;4.73;;;2.50;;
8312;SDS011;4194;43.408;24.626;2023-04-01T11:26:28;5.20;;;3.00;;
8312;SDS011;4194;43.408;24.626;2023-04-01T11:32:14;6.03;;;3.33;;
8312;SDS011;4194;43.408;24.626;2023-04-01T11:35:01;5.50;;;2.73;;
8312;SDS011;4194;43.408;24.626;2023-04-01T11:43:24;6.43;;;3.10;;
8312;SDS011;4194;43.408;24.626;2023-04-01T11:46:02;6.00;;;2.53;;
8312;SDS011;4194;43.408;24.626;2023-04-01T12:00:12;5.60;;;3.10;;
8312;SDS011;4194;43.408;24.626;2023-04-01T12:10:51;5.37;;;2.40;;
8312;SDS011;4194;43.408;24.626;2023-04-01T12:22:40;9.57;;;3.70;;
8312;SDS011;4194;43.408;24.626;2023-04-01T12:27:45;9.20;;;3.50;;
8312;SDS011;4194;43.408;24.626;2023-04-01T12:39:11;7.13;;;2.93;;
8312;SDS011;4194;43.408;24.626;2023-04-01T12:41:35;6.57;;;2.60;;
8312;SDS011;4194;43.408;24.626;2023-04-01T12:53:01;12.03;;;3.30;;
8312;SDS011;4194;43.408;24.626;2023-04-01T12:55:39;7.47;;;3.70;;
8312;SDS011;4194;43.408;24.626;2023-04-01T13:00:57;7.13;;;3.57;;
8312;SDS011;4194;43.408;24.626;2023-04-01T13:03:43;8.53;;;4.00;;
8312;SDS011;4194;43.408;24.626;2023-04-01T13:19:34;7.83;;;4.83;;
8312;SDS011;4194;43.408;24.626;2023-04-01T13:22:13;7.93;;;5.27;;
8312;SDS011;4194;43.408;24.626;2023-04-01T13:24:53;11.67;;;5.27;;
8312;SDS011;4194;43.408;24.626;2023-04-01T13:47:24;15.93;;;6.47;;
8312;SDS011;4194;43.408;24.626;2023-04-01T14:03:29;13.57;;;7.70;;
8312;SDS011;4194;43.408;24.626;2023-04-01T14:08:42;13.03;;;7.20;;
8312;SDS011;4194;43.408;24.626;2023-04-01T14:17:10;21.23;;;13.57;;
8312;SDS011;4194;43.408;24.626;2023-04-01T14:25:16;26.70;;;17.87;;
8312;SDS011;4194;43.408;24.626;2023-04-01T14:47:59;11.83;;;8.50;;
8312;SDS011;4194;43.408;24.626;2023-04-01T14:50:49;10.13;;;6.73;;
8312;SDS011;4194;43.408;24.626;2023-04-01T14:53:38;9.20;;;5.40;;
8312;SDS011;4194;43.408;24.626;2023-04-01T14:56:07;7.90;;;5.50;;
8312;SDS011;4194;43.408;24.626;2023-04-01T14:58:44;10.37;;;6.77;;
8312;SDS011;4194;43.408;24.626;2023-04-01T15:07:09;6.73;;;4.40;;
8312;SDS011;4194;43.408;24.626;2023-04-01T15:09:59;10.83;;;7.27;;
8312;SDS011;4194;43.408;24.626;2023-04-01T15:12:41;7.73;;;3.83;;
8312;SDS011;4194;43.408;24.626;2023-04-01T15:43:27;4.57;;;3.47;;
8312;SDS011;4194;43.408;24.626;2023-04-01T15:48:57;8.17;;;3.47;;
8312;SDS011;4194;43.408;24.626;2023-04-01T16:02:13;7.57;;;3.10;;
8312;SDS011;4194;43.408;24.626;2023-04-01T16:10:17;8.03;;;4.30;;
8312;SDS011;4194;43.408;24.626;2023-04-01T16:15:39;6.30;;;4.47;;
8312;SDS011;4194;43.408;24.626;2023-04-01T16:21:02;6.93;;;4.40;;
8312;SDS011;4194;43.408;24.626;2023-04-01T16:23:40;8.93;;;4.73;;
8312;SDS011;4194;43.408;24.626;2023-04-01T16:29:03;7.23;;;4.77;;
8312;SDS011;4194;43.408;24.626;2023-04-01T16:37:14;9.40;;;5.03;;
8312;SDS011;4194;43.408;24.626;2023-04-01T16:42:55;10.20;;;5.27;;
8312;SDS011;4194;43.408;24.626;2023-04-01T16:48:54;14.17;;;6.43;;
8312;SDS011;4194;43.408;24.626;2023-04-01T16:51:42;9.20;;;5.83;;
8312;SDS011;4194;43.408;24.626;2023-04-01T16:57:03;9.00;;;4.60;;
8312;SDS011;4194;43.408;24.626;2023-04-01T16:59:54;7.83;;;5.03;;
8312;SDS011;4194;43.408;24.626;2023-04-01T17:02:30;6.43;;;3.53;;
8312;SDS011;4194;43.408;24.626;2023-04-01T17:10:52;7.33;;;2.83;;
8312;SDS011;4194;43.408;24.626;2023-04-01T17:13:27;6.53;;;3.40;;
8312;SDS011;4194;43.408;24.626;2023-04-01T17:30:16;6.60;;;3.03;;
8312;SDS011;4194;43.408;24.626;2023-04-01T17:52:05;2.33;;;1.93;;
8312;SDS011;4194;43.408;24.626;2023-04-01T17:54:46;2.93;;;2.17;;
8312;SDS011;4194;43.408;24.626;2023-04-01T17:57:34;2.60;;;1.60;;
8312;SDS011;4194;43.408;24.626;2023-04-01T18:00:17;2.17;;;1.90;;
8312;SDS011;4194;43.408;24.626;2023-04-01T18:02:50;4.07;;;2.10;;
8312;SDS011;4194;43.408;24.626;2023-04-01T18:05:38;4.97;;;2.27;;
8312;SDS011;4194;43.408;24.626;2023-04-01T18:22:06;3.23;;;2.70;;
8312;SDS011;4194;43.408;24.626;2023-04-01T18:24:44;1.83;;;1.73;;
8312;SDS011;4194;43.408;24.626;2023-04-01T18:27:16;1.90;;;1.70;;
8312;SDS011;4194;43.408;24.626;2023-04-01T18:29:48;2.60;;;1.63;;
8312;SDS011;4194;43.408;24.626;2023-04-01T18:32:32;1.80;;;1.70;;
8312;SDS011;4194;43.408;24.626;2023-04-01T18:38:16;5.17;;;4.33;;
8312;SDS011;4194;43.408;24.626;2023-04-01T18:41:15;4.87;;;3.50;;
8312;SDS011;4194;43.408;24.626;2023-04-01T18:52:10;2.23;;;2.03;;
8312;SDS011;4194;43.408;24.626;2023-04-01T18:55:15;5.10;;;2.00;;
8312;SDS011;4194;43.408;24.626;2023-04-01T19:00:38;2.10;;;1.60;;
8312;SDS011;4194;43.408;24.626;2023-04-01T19:03:32;1.73;;;1.63;;
8312;SDS011;4194;43.408;24.626;2023-04-01T19:05:59;1.70;;;1.17;;
8312;SDS011;4194;43.408;24.626;2023-04-01T19:08:34;1.40;;;1.30;;
8312;SDS011;4194;43.408;24.626;2023-04-01T19:11:23;0.83;;;0.80;;
8312;SDS011;4194;43.408;24.626;2023-04-01T19:17:10;1.13;;;1.03;;
8312;SDS011;4194;43.408;24.626;2023-04-01T19:25:25;0.70;;;0.70;;
8312;SDS011;4194;43.408;24.626;2023-04-01T19:28:39;2.43;;;0.80;;
8312;SDS011;4194;43.408;24.626;2023-04-01T19:33:49;1.57;;;0.70;;
8312;SDS011;4194;43.408;24.626;2023-04-01T19:42:24;0.73;;;0.73;;
8312;SDS011;4194;43.408;24.626;2023-04-01T19:53:56;0.93;;;0.90;;
8312;SDS011;4194;43.408;24.626;2023-04-01T19:56:45;0.90;;;0.90;;
8312;SDS011;4194;43.408;24.626;2023-04-01T20:04:51;1.30;;;1.20;;
8312;SDS011;4194;43.408;24.626;2023-04-01T20:17:47;1.57;;;0.73;;
8312;SDS011;4194;43.408;24.626;2023-04-01T20:20:21;1.03;;;1.03;;
8312;SDS011;4194;43.408;24.626;2023-04-01T20:25:49;1.20;;;1.20;;
8312;SDS011;4194;43.408;24.626;2023-04-01T20:55:21;0.90;;;0.90;;
8312;SDS011;4194;43.408;24.626;2023-04-01T21:03:51;1.17;;;1.10;;
8312;SDS011;4194;43.408;24.626;2023-04-01T21:21:16;3.07;;;1.10;;
8312;SDS011;4194;43.408;24.626;2023-04-01T21:27:07;1.67;;;1.10;;
8312;SDS011;4194;43.408;24.626;2023-04-01T21:29:58;1.10;;;1.10;;
8312;SDS011;4194;43.408;24.626;2023-04-01T21:35:26;1.27;;;1.17;;
8312;SDS011;4194;43.408;24.626;2023-04-01T21:41:44;2.47;;;1.00;;
8312;SDS011;4194;43.408;24.626;2023-04-01T22:00:17;2.90;;;1.50;;
8312;SDS011;4194;43.408;24.626;2023-04-01T22:05:51;1.50;;;1.30;;
8312;SDS011;4194;43.408;24.626;2023-04-01T22:08:38;1.60;;;1.50;;
8312;SDS011;4194;43.408;24.626;2023-04-01T22:25:16;1.50;;;1.40;;
8312;SDS011;4194;43.408;24.626;2023-04-01T22:28:08;2.03;;;1.83;;
8312;SDS011;4194;43.408;24.626;2023-04-01T22:30:56;1.87;;;1.60;;
8312;SDS011;4194;43.408;24.626;2023-04-01T22:33:34;1.70;;;1.60;;
8312;SDS011;4194;43.408;24.626;2023-04-01T22:36:27;1.50;;;1.37;;
8312;SDS011;4194;43.408;24.626;2023-04-01T22:39:21;2.10;;;1.80;;
8312;SDS011;4194;43.408;24.626;2023-04-01T22:47:28;1.93;;;1.70;;
8312;SDS011;4194;43.408;24.626;2023-04-01T22:50:19;1.47;;;1.37;;
8312;SDS011;4194;43.408;24.626;2023-04-01T22:52:48;1.50;;;1.40;;
8312;SDS011;4194;43.408;24.626;2023-04-01T22:57:56;1.73;;;1.63;;
8312;SDS011;4194;43.408;24.626;2023-04-01T23:00:47;1.53;;;1.43;;
8312;SDS011;4194;43.408;24.626;2023-04-01T23:03:18;1.50;;;1.40;;
8312;SDS011;4194;43.408;24.626;2023-04-01T23:05:50;1.57;;;1.47;;
8312;SDS011;4194;43.408;24.626;2023-04-01T23:08:28;1.50;;;1.40;;
8312;SDS011;4194;43.408;24.626;2023-04-01T23:11:18;1.30;;;1.20;;
8312;SDS011;4194;43.408;24.626;2023-04-01T23:13:52;1.93;;;1.53;;
8312;SDS011;4194;43.408;24.626;2023-04-01T23:16:31;1.70;;;1.30;;
8312;SDS011;4194;43.408;24.626;2023-04-01T23:19:10;1.40;;;1.30;;
8312;SDS011;4194;43.408;24.626;2023-04-01T23:27:36;1.30;;;1.20;;
8312;SDS011;4194;43.408;24.626;2023-04-01T23:35:53;1.33;;;1.23;;
8312;SDS011;4194;43.408;24.626;2023-04-01T23:38:21;1.47;;;1.37;;
8312;SDS011;4194;43.408;24.626;2023-04-01T23:40:49;2.30;;;1.37;;
8312;SDS011;4194;43.408;24.626;2023-04-01T23:45:54;1.33;;;1.27;;
8312;SDS011;4194;43.408;24.626;2023-04-01T23:48:22;1.53;;;1.43;;
8312;SDS011;4194;43.408;24.626;2023-04-01T23:50:55;1.73;;;1.60;;
8312;SDS011;4194;43.408;24.626;2023-04-01T23:53:26;1.93;;;1.50;;
8312;SDS011;4194;43.408;24.626;2023-04-01T23:55:55;1.93;;;1.60;;
8312;SDS011;4194;43.408;24.626;2023-04-01T23:58:23;1.50;;;1.40;;
